createdAt,value
2019-04-07T00:00:34.696Z,24.10
2019-04-07T00:03:05.485Z,23.97
2019-04-07T00:05:37.792Z,23.30
2019-04-07T00:08:08.869Z,24.17
2019-04-07T00:10:40.184Z,26.07
2019-04-07T00:13:12.362Z,26.20
2019-04-07T00:15:43.489Z,27.83
2019-04-07T00:18:15.153Z,25.10
2019-04-07T00:20:46.395Z,24.60
2019-04-07T00:23:17.739Z,23.23
2019-04-07T00:25:48.095Z,21.97
2019-04-07T00:28:19.672Z,20.93
2019-04-07T00:30:51.341Z,22.67
2019-04-07T00:33:22.721Z,23.70
2019-04-07T00:35:53.398Z,23.70
2019-04-07T00:38:25.127Z,23.17
2019-04-07T00:40:56.734Z,24.10
2019-04-07T00:43:28.542Z,24.13
2019-04-07T00:46:01.325Z,25.00
2019-04-07T00:48:33.338Z,23.17
2019-04-07T00:51:05.122Z,25.30
2019-04-07T00:53:36.663Z,23.03
2019-04-07T00:56:09.296Z,23.27
2019-04-07T00:58:40.119Z,23.63
2019-04-07T01:01:12.960Z,23.40
2019-04-07T01:03:44.542Z,24.40
2019-04-07T01:06:16.553Z,23.87
2019-04-07T01:08:49.069Z,24.73
2019-04-07T01:11:21.587Z,24.30
2019-04-07T01:13:52.829Z,23.70
2019-04-07T01:16:24.164Z,26.67
2019-04-07T01:18:55.136Z,26.33
2019-04-07T01:21:26.707Z,25.33
2019-04-07T01:23:57.946Z,26.00
2019-04-07T01:26:29.508Z,26.67
2019-04-07T01:29:01.451Z,26.80
2019-04-07T01:31:33.121Z,27.47
2019-04-07T01:34:04.422Z,30.03
2019-04-07T01:36:36.092Z,28.43
2019-04-07T01:39:10.810Z,28.90
2019-04-07T01:42:09.976Z,28.80
2019-04-07T01:44:59.981Z,28.90
2019-04-07T01:47:46.646Z,29.13
2019-04-07T01:50:39.641Z,29.77
2019-04-07T01:53:29.049Z,29.23
2019-04-07T01:56:18.340Z,28.10
2019-04-07T01:59:12.144Z,29.80
2019-04-07T02:01:51.734Z,28.70
2019-04-07T02:04:41.327Z,30.55
2019-04-07T02:07:30.716Z,30.37
2019-04-07T02:10:12.858Z,29.77
2019-04-07T02:13:09.461Z,29.70
2019-04-07T02:16:05.427Z,28.70
2019-04-07T02:18:58.681Z,27.15
2019-04-07T02:21:37.737Z,27.17
2019-04-07T02:24:28.420Z,26.45
2019-04-07T02:27:18.001Z,27.70
2019-04-07T02:30:10.700Z,26.55
2019-04-07T02:32:51.141Z,26.35
2019-04-07T02:35:48.017Z,27.40
2019-04-07T02:38:35.382Z,26.90
2019-04-07T02:41:17.758Z,24.98
2019-04-07T02:44:06.872Z,26.35
2019-04-07T02:47:12.642Z,26.57
2019-04-07T02:50:01.929Z,25.55
2019-04-07T02:52:57.733Z,26.95
2019-04-07T02:55:38.045Z,26.93
2019-04-07T02:58:15.903Z,29.82
2019-04-07T03:01:04.474Z,29.90
2019-04-07T03:03:42.768Z,28.70
2019-04-07T03:06:39.151Z,29.27
2019-04-07T03:09:11.192Z,29.27
2019-04-07T03:12:10.459Z,30.65
2019-04-07T03:14:47.716Z,29.40
2019-04-07T03:17:29.755Z,30.25
2019-04-07T03:20:18.903Z,31.70
2019-04-07T03:23:07.620Z,29.80
2019-04-07T03:25:52.801Z,27.62
2019-04-07T03:28:34.607Z,30.88
2019-04-07T03:31:23.775Z,30.75
2019-04-07T03:34:23.957Z,28.87
2019-04-07T03:37:23.947Z,30.52
2019-04-07T03:40:01.200Z,29.05
2019-04-07T03:42:55.283Z,29.15
2019-04-07T03:45:32.650Z,31.30
2019-04-07T03:48:15.870Z,29.30
2019-04-07T03:51:17.828Z,30.40
2019-04-07T03:54:00.607Z,29.70
2019-04-07T03:56:51.718Z,32.25
2019-04-07T03:59:57.670Z,31.05
2019-04-07T04:02:46.369Z,31.85
2019-04-07T04:05:28.096Z,29.75
2019-04-07T04:08:06.173Z,29.75
2019-04-07T04:10:43.605Z,31.50
2019-04-07T04:13:33.165Z,31.97
2019-04-07T04:16:08.020Z,31.50
2019-04-07T04:18:39.457Z,32.08
2019-04-07T04:21:11.293Z,31.40
2019-04-07T04:23:44.282Z,32.98
2019-04-07T04:26:15.606Z,30.55
2019-04-07T04:28:47.641Z,31.80
2019-04-07T04:31:19.527Z,31.17
2019-04-07T04:33:50.274Z,31.35
2019-04-07T04:36:22.171Z,31.68
2019-04-07T04:38:54.134Z,32.42
2019-04-07T04:41:27.385Z,32.45
2019-04-07T04:43:58.233Z,31.95
2019-04-07T04:46:30.446Z,31.37
2019-04-07T04:49:02.477Z,32.38
2019-04-07T04:51:36.965Z,31.87
2019-04-07T04:54:07.537Z,32.30
2019-04-07T04:56:39.536Z,32.40
2019-04-07T04:59:11.390Z,31.15
2019-04-07T05:01:43.302Z,32.23
2019-04-07T05:04:15.202Z,30.68
2019-04-07T05:06:46.668Z,29.60
2019-04-07T05:09:55.335Z,30.12
2019-04-07T05:12:05.856Z,28.47
2019-04-07T05:14:38.804Z,30.23
2019-04-07T05:17:10.093Z,28.67
2019-04-07T05:19:42.876Z,27.53
2019-04-07T05:22:15.219Z,28.40
2019-04-07T05:24:46.748Z,30.48
2019-04-07T05:27:18.607Z,29.82
2019-04-07T05:29:49.603Z,28.90
2019-04-07T05:32:21.441Z,29.50
2019-04-07T05:34:52.968Z,29.40
2019-04-07T05:37:25.296Z,30.50
2019-04-07T05:39:56.652Z,28.62
2019-04-07T05:42:28.882Z,28.50
2019-04-07T05:45:00.612Z,31.23
2019-04-07T05:47:31.921Z,31.85
2019-04-07T05:50:05.107Z,30.20
2019-04-07T05:52:39.499Z,29.07
2019-04-07T05:55:08.997Z,29.23
2019-04-07T05:57:40.306Z,30.68
2019-04-07T06:00:16.283Z,29.77
2019-04-07T06:02:47.085Z,42.43
2019-04-07T06:05:18.736Z,31.68
2019-04-07T06:07:51.484Z,30.57
2019-04-07T06:10:27.636Z,30.55
2019-04-07T06:12:56.516Z,31.40
2019-04-07T06:15:28.274Z,30.08
2019-04-07T06:18:01.487Z,31.37
2019-04-07T06:20:33.522Z,30.97
2019-04-07T06:23:04.545Z,30.90
2019-04-07T06:25:40.914Z,30.03
2019-04-07T06:28:09.629Z,30.67
2019-04-07T06:30:41.204Z,31.40
2019-04-07T06:33:13.280Z,29.82
2019-04-07T06:35:47.335Z,31.60
2019-04-07T06:38:30.282Z,30.20
2019-04-07T06:40:55.886Z,30.40
2019-04-07T06:43:25.966Z,32.03
2019-04-07T06:46:10.659Z,31.60
2019-04-07T06:49:00.412Z,31.60
2019-04-07T06:51:54.472Z,30.60
2019-04-07T06:54:38.788Z,32.00
2019-04-07T06:57:35.135Z,37.60
2019-04-07T07:00:28.791Z,32.10
2019-04-07T07:03:19.087Z,30.63
2019-04-07T07:06:08.444Z,32.07
2019-04-07T07:09:08.284Z,30.70
2019-04-07T07:12:18.283Z,31.90
2019-04-07T07:15:00.924Z,31.00
2019-04-07T07:17:37.680Z,29.20
2019-04-07T07:20:28.802Z,29.47
2019-04-07T07:23:04.927Z,30.97
2019-04-07T07:25:36.388Z,28.83
2019-04-07T07:28:11.434Z,29.80
2019-04-07T07:30:41.430Z,29.20
2019-04-07T07:33:12.632Z,29.80
2019-04-07T07:35:48.830Z,29.07
2019-04-07T07:38:18.143Z,29.23
2019-04-07T07:40:50.097Z,28.03
2019-04-07T07:43:22.613Z,33.73
2019-04-07T07:45:54.078Z,29.03
2019-04-07T07:48:27.972Z,27.20
2019-04-07T07:51:00.031Z,28.47
2019-04-07T07:53:32.866Z,55.47
2019-04-07T07:56:08.440Z,30.30
2019-04-07T07:58:38.443Z,29.13
2019-04-07T08:01:12.355Z,27.30
2019-04-07T08:03:44.198Z,29.37
2019-04-07T08:06:16.164Z,28.87
2019-04-07T08:08:48.446Z,21.73
2019-04-07T08:11:19.244Z,26.30
2019-04-07T08:13:51.326Z,26.00
2019-04-07T08:16:22.957Z,26.07
2019-04-07T08:18:54.232Z,27.53
2019-04-07T08:21:25.839Z,23.97
2019-04-07T08:23:57.875Z,20.13
2019-04-07T08:26:29.997Z,22.83
2019-04-07T08:29:05.750Z,18.70
2019-04-07T08:31:34.897Z,20.43
2019-04-07T08:34:06.526Z,21.20
2019-04-07T08:36:38.091Z,19.00
2019-04-07T08:39:19.410Z,18.00
2019-04-07T08:41:43.485Z,17.40
2019-04-07T08:44:14.993Z,17.63
2019-04-07T08:46:46.776Z,16.30
2019-04-07T08:49:18.210Z,15.93
2019-04-07T08:51:50.570Z,15.07
2019-04-07T08:54:23.147Z,14.87
2019-04-07T08:56:56.782Z,14.53
2019-04-07T08:59:28.217Z,22.23
2019-04-07T09:02:00.040Z,17.60
2019-04-07T09:04:32.266Z,17.90
2019-04-07T09:07:04.379Z,18.70
2019-04-07T09:09:40.329Z,17.33
2019-04-07T09:12:09.225Z,18.10
2019-04-07T09:14:41.891Z,18.03
2019-04-07T09:17:38.746Z,16.00
2019-04-07T09:20:17.991Z,16.17
2019-04-07T09:22:58.337Z,13.83
2019-04-07T09:26:03.072Z,14.20
2019-04-07T09:28:45.524Z,17.70
2019-04-07T09:31:30.343Z,18.80
2019-04-07T09:34:20.809Z,16.83
2019-04-07T09:37:18.505Z,16.00
2019-04-07T09:40:04.799Z,15.30
2019-04-07T09:42:58.711Z,14.50
2019-04-07T09:45:39.436Z,14.80
2019-04-07T09:48:30.743Z,16.73
2019-04-07T09:51:20.814Z,16.10
2019-04-07T09:54:10.013Z,16.20
2019-04-07T09:56:50.752Z,16.00
2019-04-07T09:59:46.642Z,14.60
2019-04-07T10:02:35.752Z,16.63
2019-04-07T10:05:30.893Z,15.77
2019-04-07T10:08:19.108Z,16.43
2019-04-07T10:11:09.891Z,15.40
2019-04-07T10:13:55.481Z,14.50
2019-04-07T10:16:40.649Z,15.37
2019-04-07T10:19:34.044Z,14.50
2019-04-07T10:22:24.168Z,14.93
2019-04-07T10:25:30.110Z,14.93
2019-04-07T10:28:20.838Z,14.33
2019-04-07T10:31:11.335Z,13.40
2019-04-07T10:33:56.259Z,14.37
2019-04-07T10:36:46.043Z,15.20
2019-04-07T10:39:25.067Z,15.47
2019-04-07T10:42:25.067Z,14.83
2019-04-07T10:45:14.072Z,15.80
2019-04-07T10:48:04.378Z,14.40
2019-04-07T10:50:43.854Z,13.90
2019-04-07T10:53:24.978Z,14.60
2019-04-07T10:56:14.227Z,14.10
2019-04-07T10:59:19.970Z,15.03
2019-04-07T11:02:04.470Z,15.00
2019-04-07T11:04:53.831Z,15.20
2019-04-07T11:07:50.395Z,14.83
2019-04-07T11:10:46.909Z,14.70
2019-04-07T11:13:46.969Z,15.63
2019-04-07T11:16:29.525Z,15.30
2019-04-07T11:19:28.655Z,14.43
2019-04-07T11:22:14.648Z,15.57
2019-04-07T11:25:16.670Z,16.20
2019-04-07T11:28:02.694Z,15.67
2019-04-07T11:30:45.429Z,15.70
2019-04-07T11:33:44.986Z,16.27
2019-04-07T11:36:24.253Z,16.10
2019-04-07T11:39:11.168Z,16.00
2019-04-07T11:41:54.727Z,16.83
2019-04-07T11:44:51.483Z,15.87
2019-04-07T11:47:28.698Z,16.00
2019-04-07T11:50:10.744Z,25.73
2019-04-07T11:53:01.837Z,18.60
2019-04-07T11:55:55.000Z,18.50
2019-04-07T11:58:35.712Z,17.70
2019-04-07T12:01:41.906Z,19.00
2019-04-07T12:04:39.175Z,16.93
2019-04-07T12:07:21.693Z,18.20
2019-04-07T12:10:11.575Z,17.00
2019-04-07T12:13:09.094Z,16.80
2019-04-07T12:15:55.224Z,16.93
2019-04-07T12:18:40.736Z,16.63
2019-04-07T12:21:32.885Z,17.20
2019-04-07T12:24:32.397Z,15.90
2019-04-07T12:27:24.041Z,17.10
2019-04-07T12:30:13.281Z,16.53
2019-04-07T12:32:55.114Z,17.70
2019-04-07T12:35:43.801Z,17.00
2019-04-07T12:38:32.491Z,15.60
2019-04-07T12:41:20.959Z,15.30
2019-04-07T12:44:01.619Z,14.93
2019-04-07T12:46:55.644Z,16.83
2019-04-07T12:49:45.521Z,15.90
2019-04-07T12:52:38.383Z,15.50
2019-04-07T12:55:20.828Z,16.00
2019-04-07T12:58:04.918Z,15.60
2019-04-07T13:01:03.740Z,14.70
2019-04-07T13:03:44.963Z,15.33
2019-04-07T13:06:29.526Z,13.93
2019-04-07T13:09:19.340Z,14.17
2019-04-07T13:12:24.718Z,13.33
2019-04-07T13:15:05.493Z,14.63
2019-04-07T13:17:55.229Z,13.77
2019-04-07T13:20:35.474Z,13.87
2019-04-07T13:23:28.725Z,14.10
2019-04-07T13:26:30.276Z,14.00
2019-04-07T13:29:15.997Z,13.37
2019-04-07T13:32:01.373Z,12.07
2019-04-07T13:35:03.495Z,13.60
2019-04-07T13:38:00.163Z,12.90
2019-04-07T13:40:48.337Z,12.70
2019-04-07T13:43:38.091Z,13.60
2019-04-07T13:46:33.512Z,13.20
2019-04-07T13:49:29.036Z,12.47
2019-04-07T13:52:23.042Z,12.70
2019-04-07T13:55:14.064Z,12.57
2019-04-07T13:58:12.877Z,12.00
2019-04-07T14:01:18.595Z,11.73
2019-04-07T14:03:59.136Z,11.53
2019-04-07T14:06:49.467Z,12.60
2019-04-07T14:09:39.049Z,12.10
2019-04-07T14:12:31.001Z,10.73
2019-04-07T14:15:30.291Z,13.40
2019-04-07T14:18:23.029Z,14.00
2019-04-07T14:21:10.498Z,12.43
2019-04-07T14:23:54.614Z,13.40
2019-04-07T14:26:53.121Z,12.80
2019-04-07T14:29:42.094Z,13.27
2019-04-07T14:32:31.320Z,12.93
2019-04-07T14:35:19.415Z,12.60
2019-04-07T14:38:09.973Z,13.10
2019-04-07T14:41:06.535Z,15.10
2019-04-07T14:44:07.101Z,15.90
2019-04-07T14:46:56.435Z,16.00
2019-04-07T14:49:51.908Z,15.90
2019-04-07T14:53:00.751Z,14.53
2019-04-07T14:55:51.359Z,14.47
2019-04-07T14:58:32.463Z,16.73
2019-04-07T15:01:14.133Z,17.20
2019-04-07T15:03:46.723Z,15.00
2019-04-07T15:06:18.590Z,16.20
2019-04-07T15:09:10.188Z,17.07
2019-04-07T15:11:49.433Z,14.90
2019-04-07T15:14:21.337Z,14.50
2019-04-07T15:16:53.493Z,15.43
2019-04-07T15:19:25.852Z,16.20
2019-04-07T15:21:58.194Z,15.43
2019-04-07T15:24:30.631Z,16.23
2019-04-07T15:27:03.130Z,15.40
2019-04-07T15:29:39.437Z,16.37
2019-04-07T15:32:08.598Z,15.00
2019-04-07T15:34:42.092Z,15.93
2019-04-07T15:37:13.138Z,14.00
2019-04-07T15:39:44.836Z,13.93
2019-04-07T15:42:31.431Z,16.20
2019-04-07T15:44:50.791Z,16.27
2019-04-07T15:47:22.302Z,16.80
2019-04-07T15:49:57.742Z,16.33
2019-04-07T15:52:27.926Z,16.67
2019-04-07T15:54:59.556Z,15.00
2019-04-07T15:57:31.249Z,15.93
2019-04-07T16:00:04.406Z,16.30
2019-04-07T16:02:40.921Z,15.10
2019-04-07T16:05:10.524Z,15.53
2019-04-07T16:07:42.015Z,15.77
2019-04-07T16:10:14.594Z,16.07
2019-04-07T16:12:52.117Z,15.10
2019-04-07T16:15:20.889Z,15.13
2019-04-07T16:17:53.035Z,14.40
2019-04-07T16:20:29.044Z,13.87
2019-04-07T16:22:57.551Z,15.53
2019-04-07T16:25:29.231Z,14.83
2019-04-07T16:28:02.360Z,12.40
2019-04-07T16:30:34.057Z,19.33
2019-04-07T16:33:05.664Z,13.97
2019-04-07T16:35:37.280Z,14.43
2019-04-07T16:38:09.513Z,14.63
2019-04-07T16:40:42.419Z,14.40
2019-04-07T16:43:17.637Z,14.90
2019-04-07T16:45:48.566Z,13.93
2019-04-07T16:48:20.864Z,14.30
2019-04-07T16:50:55.178Z,14.60
2019-04-07T16:53:25.901Z,14.23
2019-04-07T16:55:57.646Z,14.80
2019-04-07T16:58:33.208Z,13.77
2019-04-07T17:01:02.668Z,14.03
2019-04-07T17:03:35.449Z,13.23
2019-04-07T17:06:07.433Z,13.10
2019-04-07T17:08:39.173Z,13.70
2019-04-07T17:11:11.267Z,12.73
2019-04-07T17:13:43.109Z,13.60
2019-04-07T17:16:19.004Z,15.17
2019-04-07T17:18:50.252Z,16.27
2019-04-07T17:21:24.463Z,18.20
2019-04-07T17:23:57.027Z,18.90
2019-04-07T17:26:29.625Z,13.47
2019-04-07T17:29:01.574Z,13.57
2019-04-07T17:31:33.571Z,10.93
2019-04-07T17:34:09.761Z,9.70
2019-04-07T17:36:39.498Z,9.93
2019-04-07T17:39:30.091Z,9.07
2019-04-07T17:42:01.928Z,8.73
2019-04-07T17:44:49.196Z,8.33
2019-04-07T17:47:38.029Z,7.70
2019-04-07T17:50:34.391Z,8.77
2019-04-07T17:53:21.242Z,7.60
2019-04-07T17:56:15.718Z,7.57
2019-04-07T17:58:53.420Z,7.20
2019-04-07T18:01:38.920Z,7.90
2019-04-07T18:04:25.013Z,6.97
2019-04-07T18:07:16.353Z,7.67
2019-04-07T18:10:16.873Z,7.90
2019-04-07T18:13:16.618Z,7.63
2019-04-07T18:16:17.054Z,7.57
2019-04-07T18:19:01.618Z,7.63
2019-04-07T18:21:52.792Z,7.43
2019-04-07T18:24:51.822Z,7.13
2019-04-07T18:27:41.827Z,6.33
2019-04-07T18:30:20.595Z,6.90
2019-04-07T18:32:56.173Z,6.60
2019-04-07T18:35:46.928Z,8.40
2019-04-07T18:38:34.278Z,6.70
2019-04-07T18:41:16.588Z,6.73
2019-04-07T18:44:08.400Z,6.80
2019-04-07T18:46:55.139Z,7.40
2019-04-07T18:49:41.402Z,7.10
2019-04-07T18:52:35.699Z,7.23
2019-04-07T18:55:18.200Z,8.10
2019-04-07T18:58:10.567Z,6.93
2019-04-07T19:01:05.625Z,10.43
2019-04-07T19:03:53.603Z,6.93
2019-04-07T19:06:43.527Z,6.80
2019-04-07T19:09:47.658Z,7.10
2019-04-07T19:12:37.212Z,6.40
2019-04-07T19:15:36.525Z,7.50
2019-04-07T19:18:40.299Z,6.33
2019-04-07T19:21:29.240Z,6.50
2019-04-07T19:24:22.788Z,5.67
2019-04-07T19:27:19.620Z,6.13
2019-04-07T19:30:13.620Z,5.80
2019-04-07T19:33:09.584Z,6.23
2019-04-07T19:35:51.867Z,5.60
2019-04-07T19:38:30.891Z,5.80
2019-04-07T19:41:31.457Z,5.97
2019-04-07T19:44:37.186Z,6.10
2019-04-07T19:47:34.514Z,6.67
2019-04-07T19:50:21.427Z,9.03
2019-04-07T19:53:11.369Z,7.10
2019-04-07T19:55:58.050Z,7.20
2019-04-07T19:58:47.054Z,7.63
2019-04-07T20:01:29.220Z,7.87
2019-04-07T20:04:28.515Z,7.57
2019-04-07T20:07:20.226Z,8.27
2019-04-07T20:10:19.900Z,9.00
2019-04-07T20:13:21.783Z,9.20
2019-04-07T20:16:04.951Z,9.33
2019-04-07T20:19:13.105Z,10.13
2019-04-07T20:21:56.814Z,8.20
2019-04-07T20:24:48.763Z,8.07
2019-04-07T20:27:28.794Z,8.57
2019-04-07T20:30:33.397Z,9.47
2019-04-07T20:33:32.366Z,8.03
2019-04-07T20:36:23.594Z,8.57
2019-04-07T20:39:05.120Z,9.00
2019-04-07T20:41:43.731Z,8.10
2019-04-07T20:44:38.250Z,8.40
2019-04-07T20:47:29.643Z,8.10
2019-04-07T20:50:29.263Z,8.73
2019-04-07T20:53:17.387Z,8.97
2019-04-07T20:56:03.805Z,8.20
2019-04-07T20:58:53.764Z,11.70
2019-04-07T21:01:36.762Z,11.37
2019-04-07T21:04:20.369Z,10.23
2019-04-07T21:07:20.658Z,8.97
2019-04-07T21:10:05.240Z,8.53
2019-04-07T21:12:54.816Z,8.93
2019-04-07T21:15:49.797Z,10.33
2019-04-07T21:18:34.746Z,7.77
2019-04-07T21:21:32.384Z,7.87
2019-04-07T21:24:18.378Z,7.90
2019-04-07T21:26:58.060Z,8.00
2019-04-07T21:29:41.442Z,7.17
2019-04-07T21:32:29.131Z,7.20
2019-04-07T21:35:17.612Z,7.57
2019-04-07T21:38:20.846Z,7.80
2019-04-07T21:41:08.179Z,8.10
2019-04-07T21:43:59.599Z,7.40
2019-04-07T21:47:00.892Z,7.87
2019-04-07T21:50:07.529Z,7.27
2019-04-07T21:53:03.132Z,7.60
2019-04-07T21:55:53.390Z,7.87
2019-04-07T21:59:13.999Z,8.00
2019-04-07T22:02:47.047Z,7.93
2019-04-07T22:05:26.869Z,7.87
2019-04-07T22:08:15.985Z,8.30
2019-04-07T22:10:51.389Z,8.10
2019-04-07T22:14:04.160Z,7.60
2019-04-07T22:16:47.107Z,8.43
2019-04-07T22:19:32.768Z,9.13
2019-04-07T22:22:49.665Z,8.70
2019-04-07T22:25:32.983Z,8.43
2019-04-07T22:28:42.177Z,8.17
2019-04-07T22:31:25.514Z,8.47
2019-04-07T22:34:01.033Z,8.47
2019-04-07T22:36:31.922Z,14.53
2019-04-07T22:39:12.167Z,9.43
2019-04-07T22:41:44.697Z,8.40
2019-04-07T22:44:24.706Z,11.37
2019-04-07T22:46:56.490Z,9.13
2019-04-07T22:49:30.849Z,9.13
2019-04-07T22:52:01.593Z,8.70
2019-04-07T22:54:33.158Z,9.00
2019-04-07T22:57:06.104Z,8.70
2019-04-07T22:59:38.341Z,8.50
2019-04-07T23:02:10.027Z,8.73
2019-04-07T23:04:42.653Z,8.73
2019-04-07T23:07:13.881Z,9.20
2019-04-07T23:09:45.775Z,8.70
2019-04-07T23:12:17.085Z,8.97
2019-04-07T23:14:48.454Z,8.70
2019-04-07T23:17:20.189Z,9.07
2019-04-07T23:19:52.515Z,8.87
2019-04-07T23:22:25.546Z,8.00
2019-04-07T23:24:57.611Z,8.50
2019-04-07T23:27:29.643Z,10.83
2019-04-07T23:30:01.259Z,7.90
2019-04-07T23:32:34.217Z,7.27
2019-04-07T23:35:06.247Z,7.27
2019-04-07T23:37:37.789Z,8.00
2019-04-07T23:40:09.392Z,7.30
2019-04-07T23:42:40.411Z,7.03
2019-04-07T23:45:12.376Z,7.17
2019-04-07T23:47:44.941Z,7.30
2019-04-07T23:50:16.810Z,6.67
2019-04-07T23:52:48.039Z,7.07
2019-04-07T23:55:20.381Z,5.93
2019-04-07T23:57:52.178Z,6.13
